Time;durP1;ratioP1;P1;durP2;ratioP2;P2;SDS_P1;SDS_P2;PMS_P1;PMS_P2;Temp;Humidity;BMP_temperature;BMP_pressure;BME280_temperature;BME280_humidity;BME280_pressure;Samples;Min_cycle;Max_cycle;Signal;HPM_P1;HPM_P2
2022/06/30 00:02:38;;;;;;;11.52;10.38;;;22.50;99.90;;;;;;5018077;28;20288;-78
2022/06/30 00:05:26;;;;;;;12.77;10.77;;;22.50;99.90;;;;;;5005927;28;20257;-78
2022/06/30 00:08:15;;;;;;;12.30;11.10;;;22.50;99.90;;;;;;5006658;28;20257;-79
2022/06/30 00:11:08;;;;;;;13.57;12.13;;;22.50;99.90;;;;;;5005884;28;20225;-78
2022/06/30 00:13:57;;;;;;;12.20;10.90;;;22.40;99.90;;;;;;4993704;28;20485;-76
2022/06/30 00:16:48;;;;;;;13.55;11.10;;;22.40;99.90;;;;;;5003942;28;20221;-77
2022/06/30 00:19:37;;;;;;;12.45;11.05;;;22.40;99.90;;;;;;4999078;28;20209;-76
2022/06/30 00:22:26;;;;;;;12.25;10.98;;;22.40;99.90;;;;;;5035813;28;20296;-77
2022/06/30 00:25:14;;;;;;;14.27;11.27;;;22.40;99.90;;;;;;5018268;28;20303;-77
2022/06/30 00:28:04;;;;;;;12.90;11.13;;;22.40;99.90;;;;;;5010942;28;20226;-77
2022/06/30 00:30:53;;;;;;;12.80;11.48;;;22.30;99.90;;;;;;5023697;28;20774;-77
2022/06/30 00:33:43;;;;;;;12.63;11.18;;;22.40;99.90;;;;;;5015398;28;20995;-76
2022/06/30 00:36:32;;;;;;;12.68;11.55;;;22.30;99.90;;;;;;5013232;28;20352;-77
2022/06/30 00:39:20;;;;;;;12.20;10.90;;;22.30;99.90;;;;;;5011910;28;20226;-77
2022/06/30 00:42:09;;;;;;;12.48;11.20;;;22.30;99.90;;;;;;5016535;28;20253;-77
2022/06/30 00:44:58;;;;;;;13.32;11.20;;;22.30;99.90;;;;;;5021348;28;20225;-80
2022/06/30 00:47:47;;;;;;;13.13;11.20;;;22.20;99.90;;;;;;5002732;28;20222;-79
2022/06/30 00:50:37;;;;;;;12.55;11.27;;;22.30;99.90;;;;;;5020295;28;20380;-80
2022/06/30 00:53:27;;;;;;;12.38;11.18;;;22.30;99.90;;;;;;5008983;28;20260;-80
2022/06/30 00:56:18;;;;;;;12.50;11.32;;;22.30;99.90;;;;;;5010768;28;20230;-79
2022/06/30 00:59:09;;;;;;;13.45;12.07;;;22.30;99.90;;;;;;5002250;28;20218;-79
2022/06/30 01:02:02;;;;;;;15.75;11.60;;;22.20;99.90;;;;;;5016074;28;20245;-78
2022/06/30 01:04:54;;;;;;;14.45;11.55;;;22.10;99.90;;;;;;5008808;28;20233;-78
2022/06/30 01:07:44;;;;;;;12.30;11.10;;;22.10;99.90;;;;;;5019960;28;20383;-78
2022/06/30 01:13:39;;;;;;;13.02;11.70;;;22.10;99.90;;;;;;5017545;28;20244;-82
2022/06/30 01:16:28;;;;;;;13.32;11.95;;;22.00;99.90;;;;;;5006857;28;20213;-80
2022/06/30 01:19:17;;;;;;;12.70;11.38;;;22.00;99.90;;;;;;5021803;28;20225;-79
2022/06/30 01:22:25;;;;;;;14.05;12.18;;;22.00;99.90;;;;;;5027042;28;20984;-77
2022/06/30 01:25:17;;;;;;;13.70;12.30;;;22.00;99.90;;;;;;5023966;28;20827;-77
2022/06/30 01:28:06;;;;;;;14.02;11.75;;;22.00;99.90;;;;;;5025938;28;20222;-76
2022/06/30 01:30:55;;;;;;;13.38;11.95;;;22.00;99.90;;;;;;5022071;28;20221;-79
2022/06/30 01:33:43;;;;;;;13.85;12.52;;;22.00;99.90;;;;;;5024205;28;20720;-78
2022/06/30 01:36:32;;;;;;;13.55;11.80;;;21.90;99.90;;;;;;5019013;28;20221;-79
2022/06/30 01:39:22;;;;;;;13.20;11.88;;;21.90;99.90;;;;;;5002337;28;20339;-78
2022/06/30 01:42:10;;;;;;;14.00;12.57;;;21.80;99.90;;;;;;5001723;28;20222;-81
2022/06/30 01:44:59;;;;;;;13.70;11.93;;;21.80;99.90;;;;;;5020093;28;20684;-80
2022/06/30 01:47:48;;;;;;;16.45;12.82;;;21.80;99.90;;;;;;5022973;28;20387;-81
2022/06/30 01:50:37;;;;;;;14.13;12.73;;;21.70;99.90;;;;;;5020724;28;20328;-72
2022/06/30 01:53:25;;;;;;;14.23;12.73;;;21.70;99.90;;;;;;5019881;28;20739;-80
2022/06/30 01:56:15;;;;;;;13.57;12.30;;;21.70;99.90;;;;;;5015184;28;20213;-76
2022/06/30 01:59:04;;;;;;;13.05;11.70;;;21.70;99.90;;;;;;5015468;28;20222;-78
2022/06/30 02:01:53;;;;;;;13.57;12.20;;;21.70;99.90;;;;;;5009802;28;20213;-78
2022/06/30 02:04:47;;;;;;;13.52;12.10;;;21.60;99.90;;;;;;5002175;28;20334;-78
2022/06/30 02:07:36;;;;;;;14.23;12.73;;;21.60;99.90;;;;;;5002054;28;20238;-79
2022/06/30 02:10:25;;;;;;;13.13;11.73;;;21.60;99.90;;;;;;5021526;28;20233;-79
2022/06/30 02:13:15;;;;;;;15.10;12.80;;;21.50;99.90;;;;;;5010894;28;20233;-79
2022/06/30 02:16:04;;;;;;;13.85;12.48;;;21.50;99.90;;;;;;5020913;28;20316;-79
2022/06/30 02:18:52;;;;;;;14.85;13.05;;;21.50;99.90;;;;;;5006578;28;20214;-79
2022/06/30 02:21:41;;;;;;;17.40;13.20;;;21.50;99.90;;;;;;5018486;28;20311;-78
2022/06/30 02:24:33;;;;;;;13.98;12.55;;;21.50;99.90;;;;;;5006364;28;20336;-78
2022/06/30 02:27:24;;;;;;;14.02;12.73;;;21.40;99.90;;;;;;5017329;28;20218;-77
2022/06/30 02:30:15;;;;;;;14.68;13.07;;;21.40;99.90;;;;;;5017182;28;20256;-78
2022/06/30 02:33:04;;;;;;;14.43;12.82;;;21.40;99.90;;;;;;5021735;28;20367;-78
2022/06/30 02:35:52;;;;;;;15.18;12.95;;;21.40;99.90;;;;;;5015416;28;20222;-77
2022/06/30 02:38:41;;;;;;;14.68;13.18;;;21.50;99.90;;;;;;5018552;28;20349;-78
2022/06/30 02:41:30;;;;;;;15.65;13.32;;;21.40;99.90;;;;;;5021011;28;20226;-78
2022/06/30 02:44:19;;;;;;;13.85;12.32;;;21.50;99.90;;;;;;5010133;28;20718;-79
2022/06/30 02:47:10;;;;;;;15.27;13.65;;;21.50;99.90;;;;;;5019930;28;20315;-78
2022/06/30 02:49:59;;;;;;;14.25;12.88;;;21.50;99.90;;;;;;5000329;28;20244;-78
2022/06/30 02:52:47;;;;;;;16.08;12.98;;;21.50;99.90;;;;;;5018241;28;20386;-78
2022/06/30 02:55:36;;;;;;;15.68;12.63;;;21.40;99.90;;;;;;5016581;28;20228;-77
2022/06/30 02:58:24;;;;;;;17.00;12.95;;;21.40;99.90;;;;;;5014884;28;20226;-79
2022/06/30 03:01:13;;;;;;;14.68;12.68;;;21.50;99.90;;;;;;5015148;28;20300;-79
2022/06/30 03:04:04;;;;;;;14.40;12.52;;;21.50;99.90;;;;;;5004376;28;20691;-77
2022/06/30 03:06:55;;;;;;;13.98;12.57;;;21.50;99.90;;;;;;5021593;28;20231;-78
2022/06/30 03:09:44;;;;;;;15.13;13.32;;;21.40;99.90;;;;;;5001809;28;20225;-77
2022/06/30 03:12:32;;;;;;;15.48;12.25;;;21.40;99.90;;;;;;5016468;28;20221;-78
2022/06/30 03:15:21;;;;;;;15.18;13.00;;;21.40;99.90;;;;;;5015042;28;20780;-78
2022/06/30 03:18:13;;;;;;;16.30;12.85;;;21.40;99.90;;;;;;5012552;28;20238;-81
2022/06/30 03:21:03;;;;;;;14.70;12.40;;;21.40;99.90;;;;;;5013426;28;20857;-78
2022/06/30 03:23:52;;;;;;;14.48;13.00;;;21.40;99.90;;;;;;5014519;28;20217;-77
2022/06/30 03:26:41;;;;;;;15.63;13.05;;;21.40;99.90;;;;;;5016131;28;20345;-77
2022/06/30 03:29:29;;;;;;;15.15;12.98;;;21.40;99.90;;;;;;5014887;28;21256;-79
2022/06/30 03:32:18;;;;;;;15.70;13.30;;;21.50;99.90;;;;;;5006156;28;20232;-79
2022/06/30 03:35:08;;;;;;;15.15;13.60;;;21.40;99.90;;;;;;5014624;28;20295;-79
2022/06/30 03:37:58;;;;;;;15.85;14.15;;;21.30;99.90;;;;;;5006074;28;20230;-79
2022/06/30 03:40:47;;;;;;;15.50;13.85;;;21.30;99.90;;;;;;5019761;28;20229;-76
2022/06/30 03:43:35;;;;;;;18.90;13.95;;;21.30;99.90;;;;;;5017209;28;20213;-77
2022/06/30 03:46:27;;;;;;;15.68;13.30;;;21.20;99.90;;;;;;5018851;28;20250;-80
2022/06/30 03:49:16;;;;;;;15.95;13.63;;;21.30;99.90;;;;;;5013052;28;20234;-78
2022/06/30 03:52:06;;;;;;;14.70;13.23;;;21.30;99.90;;;;;;5013741;28;20551;-77
2022/06/30 03:54:56;;;;;;;15.45;13.90;;;21.40;99.90;;;;;;5016614;28;20391;-77
2022/06/30 03:57:44;;;;;;;18.13;13.27;;;21.30;99.90;;;;;;5018528;28;20324;-77
2022/06/30 04:00:33;;;;;;;15.48;13.77;;;21.40;99.90;;;;;;5011149;28;20225;-77
2022/06/30 04:03:22;;;;;;;17.83;14.80;;;21.40;99.90;;;;;;5013904;28;20263;-76
2022/06/30 04:06:10;;;;;;;15.52;13.93;;;21.40;99.90;;;;;;5010063;28;20221;-77
2022/06/30 04:08:59;;;;;;;18.38;13.63;;;21.50;99.90;;;;;;5011587;28;20541;-77
2022/06/30 04:11:49;;;;;;;15.40;13.00;;;21.60;99.90;;;;;;5001000;28;20226;-77
2022/06/30 04:14:38;;;;;;;20.42;13.52;;;21.70;99.90;;;;;;5016342;28;20278;-77
2022/06/30 04:17:26;;;;;;;17.23;13.90;;;21.70;99.90;;;;;;5016330;28;20242;-77
2022/06/30 04:20:18;;;;;;;15.02;13.25;;;21.80;99.90;;;;;;5013872;28;20315;-76
2022/06/30 04:23:06;;;;;;;17.65;13.77;;;21.80;99.90;;;;;;5013797;28;20218;-81
2022/06/30 04:25:55;;;;;;;14.50;13.10;;;21.90;99.90;;;;;;5015033;28;20279;-79
2022/06/30 04:28:48;;;;;;;15.18;13.60;;;22.00;99.90;;;;;;5016181;28;20224;-80
2022/06/30 04:34:43;;;;;;;13.55;12.32;;;22.20;99.90;;;;;;5014584;28;20312;-77
2022/06/30 04:37:31;;;;;;;14.85;13.25;;;22.40;99.90;;;;;;5022960;28;20225;-81
2022/06/30 04:43:30;;;;;;;15.38;13.75;;;22.70;99.90;;;;;;5006501;28;20232;-80
2022/06/30 04:46:24;;;;;;;14.77;13.18;;;22.90;99.90;;;;;;5023024;28;20229;-78
2022/06/30 04:49:15;;;;;;;15.93;13.63;;;22.90;99.90;;;;;;5008354;28;20240;-77
2022/06/30 04:52:05;;;;;;;15.27;13.20;;;22.90;99.90;;;;;;5012222;28;20231;-77
2022/06/30 04:54:53;;;;;;;15.85;13.15;;;23.00;99.90;;;;;;5017843;28;20241;-78
2022/06/30 04:57:42;;;;;;;15.02;13.43;;;23.00;99.90;;;;;;5018040;28;20225;-78
2022/06/30 05:00:31;;;;;;;14.38;12.82;;;23.00;99.90;;;;;;5015845;28;20296;-80
2022/06/30 05:03:21;;;;;;;14.40;13.00;;;23.00;99.90;;;;;;5015660;28;20231;-78
2022/06/30 05:06:09;;;;;;;15.25;12.50;;;23.10;99.90;;;;;;5023397;28;20225;-78
2022/06/30 05:08:58;;;;;;;16.17;12.05;;;23.20;99.90;;;;;;5019179;28;20228;-77
2022/06/30 05:11:47;;;;;;;16.63;13.27;;;23.20;99.90;;;;;;5001766;28;20284;-78
2022/06/30 05:14:35;;;;;;;14.32;12.88;;;23.20;99.90;;;;;;5021151;28;20276;-76
2022/06/30 05:17:26;;;;;;;15.85;12.85;;;23.20;99.90;;;;;;5013331;28;20221;-76
2022/06/30 05:20:17;;;;;;;13.93;12.52;;;23.40;99.90;;;;;;5002317;28;20222;-77
2022/06/30 05:23:05;;;;;;;15.23;13.15;;;23.30;99.90;;;;;;5016171;28;20785;-76
2022/06/30 05:29:00;;;;;;;13.90;12.50;;;23.40;99.90;;;;;;5002648;28;20715;-76
2022/06/30 05:31:49;;;;;;;15.63;12.40;;;23.40;99.90;;;;;;5014078;28;20276;-75
2022/06/30 05:34:37;;;;;;;18.20;12.35;;;23.50;99.90;;;;;;5006349;28;20256;-74
2022/06/30 05:37:27;;;;;;;15.00;12.73;;;23.70;99.90;;;;;;5018464;28;20222;-80
2022/06/30 05:40:16;;;;;;;14.43;12.93;;;23.80;99.90;;;;;;5025006;28;20222;-80
2022/06/30 05:43:05;;;;;;;16.90;13.02;;;23.90;99.90;;;;;;5015787;28;20386;-81
2022/06/30 05:45:55;;;;;;;14.65;12.80;;;24.00;99.90;;;;;;5023372;28;20222;-79
2022/06/30 05:48:47;;;;;;;15.95;13.07;;;24.10;99.90;;;;;;5026673;28;20253;-79
2022/06/30 05:51:40;;;;;;;14.68;13.05;;;24.20;99.90;;;;;;5026101;28;20311;-81
2022/06/30 05:54:31;;;;;;;20.08;13.27;;;24.10;99.90;;;;;;5045913;28;20246;-80
2022/06/30 05:57:20;;;;;;;14.95;13.20;;;24.10;99.90;;;;;;5031833;28;20226;-78
2022/06/30 06:00:10;;;;;;;15.57;12.43;;;24.40;99.90;;;;;;5029499;28;20747;-75
2022/06/30 06:03:02;;;;;;;20.02;13.00;;;24.50;99.90;;;;;;5017001;28;20301;-74
2022/06/30 06:05:51;;;;;;;14.27;12.77;;;24.60;99.90;;;;;;5003002;28;20225;-78
2022/06/30 06:08:43;;;;;;;17.98;12.30;;;24.50;99.90;;;;;;5013168;28;20298;-77
2022/06/30 06:11:36;;;;;;;14.05;12.50;;;24.80;99.90;;;;;;5022535;28;20232;-74
2022/06/30 06:14:25;;;;;;;18.30;10.93;;;24.80;99.90;;;;;;5021650;28;20719;-77
2022/06/30 06:17:14;;;;;;;20.42;12.70;;;25.00;99.90;;;;;;5017606;28;20311;-79
2022/06/30 06:20:02;;;;;;;14.95;13.10;;;25.30;99.90;;;;;;5006482;28;20253;-76
2022/06/30 06:22:51;;;;;;;13.55;12.25;;;25.30;99.90;;;;;;5015762;28;20210;-71
2022/06/30 06:25:40;;;;;;;14.65;13.05;;;25.30;99.90;;;;;;5013590;28;20362;-72
2022/06/30 06:31:38;;;;;;;16.65;12.77;;;25.30;99.90;;;;;;5019943;28;20264;-73
2022/06/30 06:34:27;;;;;;;14.40;12.23;;;25.20;99.90;;;;;;5019480;28;20234;-73
2022/06/30 06:37:16;;;;;;;15.65;13.23;;;25.20;99.90;;;;;;5021332;28;20221;-72
2022/06/30 06:40:05;;;;;;;18.75;12.40;;;25.00;99.90;;;;;;5003887;28;20391;-72
2022/06/30 06:42:54;;;;;;;14.32;12.82;;;24.90;99.90;;;;;;5017853;28;20372;-73
2022/06/30 06:45:44;;;;;;;16.63;13.20;;;24.80;99.90;;;;;;5022113;28;20248;-72
2022/06/30 06:48:33;;;;;;;18.02;14.27;;;24.70;99.90;;;;;;5004591;28;20265;-72
2022/06/30 06:51:22;;;;;;;14.95;13.32;;;24.60;99.90;;;;;;5000909;28;20250;-73
2022/06/30 06:54:10;;;;;;;15.63;13.90;;;24.50;99.90;;;;;;4990618;28;20238;-70
2022/06/30 06:56:59;;;;;;;20.20;12.50;;;24.50;99.90;;;;;;5003511;28;20230;-70
2022/06/30 06:59:48;;;;;;;13.88;12.45;;;24.70;99.90;;;;;;5001691;28;20226;-74
2022/06/30 07:02:38;;;;;;;16.70;12.90;;;24.80;99.90;;;;;;5017038;28;20292;-76
2022/06/30 07:05:26;;;;;;;14.75;13.20;;;24.80;99.90;;;;;;5006057;28;20238;-76
2022/06/30 07:08:15;;;;;;;14.82;13.43;;;24.80;99.90;;;;;;5002677;28;20210;-77
2022/06/30 07:11:05;;;;;;;15.98;12.30;;;24.90;99.90;;;;;;5006566;28;20229;-79
2022/06/30 07:13:54;;;;;;;18.13;14.05;;;25.00;99.90;;;;;;5004129;28;20377;-76
2022/06/30 07:16:42;;;;;;;14.82;12.80;;;25.20;99.90;;;;;;4999651;28;20218;-75
2022/06/30 07:19:36;;;;;;;15.02;13.43;;;25.30;99.90;;;;;;5002944;28;20225;-73
2022/06/30 07:22:25;;;;;;;16.63;13.48;;;25.40;99.90;;;;;;5006625;28;20733;-72
2022/06/30 07:25:13;;;;;;;14.77;13.38;;;25.40;99.90;;;;;;4986467;28;20312;-72
2022/06/30 07:28:02;;;;;;;17.77;13.52;;;25.80;99.90;;;;;;4984928;28;20222;-74
2022/06/30 07:31:08;;;;;;;16.05;14.13;;;26.00;99.90;;;;;;5005709;28;20641;-74
2022/06/30 07:33:57;;;;;;;18.00;13.32;;;26.50;99.90;;;;;;5004142;28;20333;-74
2022/06/30 07:36:48;;;;;;;14.93;12.32;;;26.70;99.90;;;;;;4989751;28;20218;-72
2022/06/30 07:39:36;;;;;;;15.70;12.73;;;27.00;99.90;;;;;;5004377;28;20321;-72
2022/06/30 07:42:42;;;;;;;14.07;12.73;;;27.40;99.90;;;;;;5002582;28;20252;-73
2022/06/30 07:45:48;;;;;;;15.23;12.50;;;27.20;99.90;;;;;;4998461;28;20264;-71
2022/06/30 07:48:46;;;;;;;12.88;11.75;;;27.80;99.90;;;;;;5003318;28;20214;-72
2022/06/30 07:51:35;;;;;;;17.25;12.50;;;28.20;99.90;;;;;;4980673;28;20227;-73
2022/06/30 07:54:25;;;;;;;16.50;13.10;;;28.40;99.90;;;;;;4990828;28;20271;-76
2022/06/30 07:57:13;;;;;;;14.70;13.15;;;28.50;99.90;;;;;;4987125;28;20777;-75
2022/06/30 08:00:24;;;;;;;15.88;13.70;;;28.70;99.90;;;;;;5002488;28;20225;-73
2022/06/30 08:03:13;;;;;;;15.20;13.32;;;28.40;99.90;;;;;;4987949;28;20221;-72
2022/06/30 08:06:02;;;;;;;22.38;12.35;;;28.20;99.90;;;;;;5000657;28;20356;-72
2022/06/30 08:08:51;;;;;;;13.52;12.20;;;28.50;99.90;;;;;;4997466;28;20230;-72
2022/06/30 08:11:41;;;;;;;14.50;11.93;;;29.00;99.90;;;;;;4989111;28;20735;-73
2022/06/30 08:14:29;;;;;;;14.20;12.73;;;29.20;99.90;;;;;;5004261;28;20631;-71
2022/06/30 08:17:18;;;;;;;15.95;13.27;;;29.60;99.90;;;;;;5007565;28;20695;-71
2022/06/30 08:20:07;;;;;;;14.60;13.10;;;29.40;99.90;;;;;;5005763;28;20271;-73
2022/06/30 08:22:56;;;;;;;13.70;12.40;;;29.10;99.90;;;;;;5003718;28;20838;-71
2022/06/30 08:25:45;;;;;;;15.18;12.88;;;29.00;99.90;;;;;;5003147;28;20226;-73
2022/06/30 08:28:35;;;;;;;16.17;12.73;;;29.00;99.90;;;;;;5002875;28;20220;-73
2022/06/30 08:31:24;;;;;;;15.13;13.73;;;28.80;99.90;;;;;;4999514;28;20229;-72
2022/06/30 08:34:12;;;;;;;14.88;13.25;;;29.30;99.90;;;;;;4998198;28;20248;-73
2022/06/30 08:37:02;;;;;;;15.30;12.88;;;29.40;99.90;;;;;;5000185;28;20306;-72
2022/06/30 08:42:57;;;;;;;14.60;13.25;;;30.00;99.90;;;;;;4986797;28;20305;-75
2022/06/30 08:45:48;;;;;;;15.38;13.82;;;30.10;99.90;;;;;;5002047;28;20716;-76
2022/06/30 08:48:37;;;;;;;14.05;12.70;;;30.30;99.90;;;;;;5004708;28;20235;-76
2022/06/30 08:51:29;;;;;;;17.10;13.48;;;30.60;99.90;;;;;;5023517;28;20285;-78
2022/06/30 08:54:20;;;;;;;18.00;13.05;;;31.30;99.90;;;;;;4998984;28;20723;-76
2022/06/30 08:57:10;;;;;;;15.02;13.43;;;31.80;99.90;;;;;;5021284;28;20406;-77
2022/06/30 08:59:59;;;;;;;18.60;14.35;;;31.80;99.90;;;;;;5021714;28;20216;-75
2022/06/30 09:02:49;;;;;;;15.07;13.48;;;31.70;99.90;;;;;;5021172;28;20225;-77
2022/06/30 09:05:39;;;;;;;15.45;13.35;;;31.90;99.90;;;;;;5020212;28;20236;-77
2022/06/30 09:08:27;;;;;;;20.98;13.57;;;32.10;99.90;;;;;;5022130;28;20784;-76
2022/06/30 09:11:16;;;;;;;15.35;13.35;;;32.40;99.90;;;;;;5005677;28;20225;-75
2022/06/30 09:14:05;;;;;;;15.38;13.38;;;32.70;99.90;;;;;;5021781;28;20221;-76
2022/06/30 09:16:54;;;;;;;15.52;12.90;;;33.30;99.90;;;;;;5018031;28;20221;-75
2022/06/30 09:19:58;;;;;;;14.90;13.43;;;33.70;99.90;;;;;;5015335;28;20232;-76
2022/06/30 09:22:47;;;;;;;19.27;12.90;;;33.80;99.90;;;;;;5004894;28;20324;-75
2022/06/30 09:25:41;;;;;;;14.82;13.27;;;34.10;99.90;;;;;;5008545;28;20232;-74
2022/06/30 09:28:41;;;;;;;18.10;12.65;;;34.60;99.90;;;;;;5007294;28;20232;-76
2022/06/30 09:31:50;;;;;;;15.38;12.18;;;35.00;99.90;;;;;;5022637;28;20220;-76
2022/06/30 09:34:40;;;;;;;15.70;12.85;;;35.60;99.90;;;;;;5021679;28;20684;-74
2022/06/30 09:37:30;;;;;;;14.32;12.50;;;35.40;99.50;;;;;;5020788;28;20707;-75
2022/06/30 09:40:29;;;;;;;13.25;12.05;;;35.70;96.60;;;;;;5019839;28;20853;-75
2022/06/30 09:43:34;;;;;;;15.70;12.43;;;35.70;97.30;;;;;;5021006;28;20307;-75
2022/06/30 09:46:23;;;;;;;13.77;12.35;;;35.60;95.90;;;;;;4996049;28;20892;-74
2022/06/30 09:49:11;;;;;;;15.02;11.70;;;35.80;94.30;;;;;;5026717;28;20216;-75
2022/06/30 09:52:00;;;;;;;15.00;11.50;;;36.40;94.90;;;;;;5019032;28;20224;-76
2022/06/30 09:54:55;;;;;;;16.48;11.35;;;37.50;91.30;;;;;;5018858;28;20278;-77
2022/06/30 09:57:45;;;;;;;12.38;10.05;;;37.20;89.90;;;;;;5018439;28;20749;-75
2022/06/30 10:00:47;;;;;;;11.73;10.52;;;38.10;83.00;;;;;;5021096;28;20221;-74
2022/06/30 10:03:45;;;;;;;11.43;10.18;;;38.30;80.50;;;;;;5025223;28;21239;-76
2022/06/30 10:06:34;;;;;;;11.27;10.02;;;40.00;78.00;;;;;;5019543;28;20672;-74
2022/06/30 10:09:22;;;;;;;10.52;9.63;;;40.60;73.40;;;;;;5021084;28;20229;-76
2022/06/30 10:12:13;;;;;;;11.55;9.40;;;40.70;71.30;;;;;;5018631;28;20222;-75
2022/06/30 10:15:08;;;;;;;12.15;9.35;;;41.50;68.90;;;;;;5018871;28;20615;-76
2022/06/30 10:17:58;;;;;;;10.00;9.10;;;41.90;67.90;;;;;;5021056;28;20224;-76
2022/06/30 10:20:46;;;;;;;10.02;9.15;;;41.60;66.10;;;;;;5020431;28;20240;-76
2022/06/30 10:23:36;;;;;;;9.43;8.07;;;41.30;67.30;;;;;;5031000;28;20225;-76
2022/06/30 10:29:33;;;;;;;12.93;9.38;;;41.80;63.50;;;;;;5017413;28;20217;-75
2022/06/30 10:32:50;;;;;;;10.32;8.43;;;42.90;62.80;;;;;;5033837;28;20224;-75
2022/06/30 10:35:45;;;;;;;9.75;8.70;;;43.10;60.70;;;;;;5018290;28;20239;-74
2022/06/30 10:38:45;;;;;;;9.00;8.20;;;43.00;59.40;;;;;;5009854;28;20331;-76
2022/06/30 10:41:44;;;;;;;9.20;8.07;;;43.70;59.00;;;;;;5022203;28;20220;-73
2022/06/30 10:44:34;;;;;;;9.70;8.80;;;44.30;57.00;;;;;;5017881;28;20225;-76
2022/06/30 10:47:26;;;;;;;9.63;8.70;;;43.20;57.50;;;;;;5018564;28;20237;-75
2022/06/30 10:50:31;;;;;;;9.13;8.25;;;43.10;57.60;;;;;;5003201;28;20225;-76
2022/06/30 10:53:50;;;;;;;11.18;8.55;;;43.30;56.00;;;;;;5018703;28;20583;-75
2022/06/30 10:56:58;;;;;;;9.73;8.15;;;43.60;56.50;;;;;;5015395;28;20248;-75
2022/06/30 10:59:49;;;;;;;8.80;8.00;;;43.90;56.30;;;;;;5017581;28;20221;-74
2022/06/30 11:02:46;;;;;;;10.25;7.95;;;43.20;57.80;;;;;;5018165;28;20222;-76
2022/06/30 11:05:51;;;;;;;8.68;8.00;;;43.90;54.70;;;;;;5019163;28;20228;-73
2022/06/30 11:08:49;;;;;;;9.05;8.07;;;43.40;53.70;;;;;;5017266;28;20224;-76
2022/06/30 11:11:44;;;;;;;8.25;7.00;;;43.60;55.40;;;;;;5016108;28;20259;-75
2022/06/30 11:14:42;;;;;;;9.98;7.72;;;44.00;53.30;;;;;;5002747;28;20283;-74
2022/06/30 11:17:39;;;;;;;8.75;7.95;;;44.30;54.70;;;;;;5018263;28;20214;-75
2022/06/30 11:20:28;;;;;;;9.45;7.82;;;44.90;53.80;;;;;;5019675;28;20220;-74
2022/06/30 11:23:19;;;;;;;8.30;7.50;;;45.10;53.20;;;;;;5023323;28;20229;-74
2022/06/30 11:29:18;;;;;;;9.82;7.40;;;44.80;54.20;;;;;;5000791;28;20309;-74
2022/06/30 11:32:11;;;;;;;9.25;7.22;;;42.80;53.80;;;;;;5015332;28;20253;-75
2022/06/30 11:35:01;;;;;;;9.00;7.05;;;43.10;55.60;;;;;;5022458;28;20237;-76
2022/06/30 11:37:51;;;;;;;13.65;8.15;;;44.00;53.80;;;;;;5003852;28;20225;-75
2022/06/30 11:40:39;;;;;;;11.07;7.72;;;44.50;54.10;;;;;;5018161;28;20224;-76
2022/06/30 11:43:28;;;;;;;8.38;7.03;;;44.50;52.40;;;;;;5016879;28;20287;-76
2022/06/30 11:46:17;;;;;;;7.75;6.95;;;44.70;52.50;;;;;;5017756;28;20310;-74
2022/06/30 11:49:05;;;;;;;7.78;7.03;;;44.50;52.00;;;;;;5020957;28;20224;-75
2022/06/30 11:51:59;;;;;;;8.95;8.05;;;41.90;54.10;;;;;;5023171;28;20226;-77
2022/06/30 11:54:50;;;;;;;9.45;7.90;;;41.40;58.10;;;;;;5018046;28;20313;-76
2022/06/30 11:57:41;;;;;;;9.88;7.47;;;42.20;56.90;;;;;;5002113;28;20316;-76
2022/06/30 12:00:31;;;;;;;8.27;7.57;;;43.20;55.20;;;;;;5011522;28;20778;-75
2022/06/30 12:03:20;;;;;;;8.43;7.57;;;44.00;51.90;;;;;;5018697;28;20401;-76
2022/06/30 12:06:10;;;;;;;8.52;7.53;;;42.90;50.50;;;;;;5020716;28;20681;-76
2022/06/30 12:09:00;;;;;;;9.63;7.45;;;41.90;54.10;;;;;;5017273;28;20221;-74
2022/06/30 12:11:51;;;;;;;10.07;7.53;;;42.80;52.00;;;;;;5015095;28;20225;-76
2022/06/30 12:14:41;;;;;;;8.02;7.28;;;41.50;54.10;;;;;;5018469;28;20946;-77
2022/06/30 12:17:31;;;;;;;9.65;7.70;;;41.70;54.20;;;;;;5020235;28;20208;-77
2022/06/30 12:20:22;;;;;;;8.48;6.78;;;42.70;52.40;;;;;;5003623;28;20268;-78
2022/06/30 12:23:12;;;;;;;8.68;6.55;;;43.70;50.60;;;;;;5013093;28;20691;-77
2022/06/30 12:26:03;;;;;;;8.80;7.43;;;43.90;50.00;;;;;;5019495;28;20415;-76
2022/06/30 12:28:55;;;;;;;8.10;7.22;;;44.10;50.00;;;;;;5009816;28;20298;-77
2022/06/30 12:31:56;;;;;;;8.60;7.03;;;44.20;50.40;;;;;;5004202;28;20221;-77
2022/06/30 12:34:53;;;;;;;7.85;6.50;;;44.00;50.40;;;;;;5009658;28;20220;-77
2022/06/30 12:37:43;;;;;;;8.45;6.15;;;43.90;48.40;;;;;;5026209;28;20810;-77
2022/06/30 12:40:38;;;;;;;7.60;6.90;;;43.80;49.00;;;;;;5012405;28;20294;-76
2022/06/30 12:43:45;;;;;;;9.50;6.72;;;43.30;51.30;;;;;;5002449;28;20274;-76
2022/06/30 12:46:40;;;;;;;7.35;6.40;;;43.20;49.90;;;;;;5017812;28;20328;-76
2022/06/30 12:49:28;;;;;;;8.18;7.20;;;42.90;51.00;;;;;;5021548;28;20217;-76
2022/06/30 12:52:19;;;;;;;9.70;6.68;;;42.80;51.30;;;;;;5027807;28;20299;-76
2022/06/30 12:55:08;;;;;;;8.55;6.68;;;42.80;51.60;;;;;;5033944;28;20737;-79
2022/06/30 12:58:01;;;;;;;9.35;7.20;;;41.90;51.30;;;;;;5005279;28;20552;-76
2022/06/30 13:00:56;;;;;;;11.55;7.72;;;40.20;54.20;;;;;;5011809;28;20260;-77
2022/06/30 13:03:59;;;;;;;8.65;7.45;;;39.00;57.60;;;;;;5019202;28;20229;-73
2022/06/30 13:06:50;;;;;;;12.05;8.20;;;38.40;57.80;;;;;;5024784;28;20339;-72
2022/06/30 13:09:42;;;;;;;12.50;8.95;;;37.40;59.20;;;;;;5025579;28;20213;-75
2022/06/30 13:12:31;;;;;;;11.40;8.57;;;37.10;61.30;;;;;;5025045;28;20225;-72
2022/06/30 13:15:19;;;;;;;11.82;8.95;;;36.60;61.80;;;;;;5023095;28;20268;-71
2022/06/30 13:18:09;;;;;;;15.10;8.80;;;36.40;63.00;;;;;;5008411;28;20213;-74
2022/06/30 13:20:58;;;;;;;9.18;8.38;;;36.10;63.00;;;;;;5020711;28;20227;-72
2022/06/30 13:23:47;;;;;;;11.70;8.73;;;35.60;63.60;;;;;;5020714;28;20287;-76
2022/06/30 13:26:37;;;;;;;13.23;9.50;;;35.50;65.60;;;;;;5023936;28;20229;-74
2022/06/30 13:29:43;;;;;;;9.80;8.82;;;35.60;65.30;;;;;;5025042;28;20224;-76
2022/06/30 13:32:50;;;;;;;11.85;9.43;;;35.50;64.10;;;;;;5023889;28;20744;-75
2022/06/30 13:35:40;;;;;;;10.77;9.68;;;35.50;65.00;;;;;;5022970;28;20599;-75
2022/06/30 13:38:28;;;;;;;10.07;9.23;;;35.40;65.70;;;;;;5024196;28;21570;-75
2022/06/30 13:41:17;;;;;;;14.23;9.93;;;35.40;67.40;;;;;;5018811;28;20644;-74
2022/06/30 13:44:10;;;;;;;10.05;9.05;;;35.30;66.70;;;;;;5005908;28;20869;-74
2022/06/30 13:47:00;;;;;;;10.30;9.40;;;35.00;66.30;;;;;;5015762;28;20619;-74
2022/06/30 13:49:49;;;;;;;13.02;9.60;;;34.90;67.00;;;;;;5017304;28;20268;-74
2022/06/30 13:52:39;;;;;;;12.38;9.82;;;34.80;67.80;;;;;;5014724;28;20773;-75
2022/06/30 13:55:32;;;;;;;13.30;9.98;;;34.80;69.50;;;;;;5017665;28;20248;-75
2022/06/30 13:58:22;;;;;;;10.70;9.68;;;34.80;69.20;;;;;;5015868;28;20256;-78
2022/06/30 14:01:12;;;;;;;10.77;9.68;;;34.90;68.80;;;;;;5010564;28;20363;-76
2022/06/30 14:04:01;;;;;;;13.27;10.50;;;34.60;69.90;;;;;;5020473;28;20223;-76
2022/06/30 14:06:49;;;;;;;15.68;10.65;;;34.60;68.70;;;;;;5017215;28;20316;-78
2022/06/30 14:09:39;;;;;;;11.30;10.15;;;34.60;69.90;;;;;;5017054;28;20256;-76
2022/06/30 14:12:28;;;;;;;13.02;9.75;;;34.50;70.50;;;;;;5012942;28;20346;-77
2022/06/30 14:15:17;;;;;;;16.63;10.80;;;34.50;69.60;;;;;;5008596;28;20221;-75
2022/06/30 14:18:11;;;;;;;11.32;10.20;;;34.20;70.80;;;;;;5002062;28;20604;-77
2022/06/30 14:21:17;;;;;;;12.05;9.93;;;34.10;72.70;;;;;;5019994;28;20375;-75
2022/06/30 14:24:06;;;;;;;13.52;10.77;;;34.10;72.30;;;;;;5018337;28;20229;-77
2022/06/30 14:26:56;;;;;;;11.90;10.10;;;34.00;71.60;;;;;;5008598;28;20220;-77
2022/06/30 14:29:45;;;;;;;18.20;10.00;;;34.00;70.70;;;;;;5009072;28;20313;-76
2022/06/30 14:32:34;;;;;;;10.75;9.32;;;34.00;69.90;;;;;;5018207;28;20686;-76
2022/06/30 14:35:23;;;;;;;10.95;9.95;;;34.10;71.30;;;;;;5026514;28;20221;-76
2022/06/30 14:38:11;;;;;;;10.50;9.57;;;34.10;72.60;;;;;;5022088;28;20213;-76
2022/06/30 14:41:00;;;;;;;13.52;10.40;;;34.10;71.70;;;;;;5009027;28;20217;-80
2022/06/30 14:43:50;;;;;;;11.07;9.98;;;34.00;71.70;;;;;;5029691;28;20304;-77
2022/06/30 14:46:38;;;;;;;14.30;10.43;;;34.10;71.80;;;;;;5029611;28;20265;-82
2022/06/30 14:49:27;;;;;;;12.60;10.55;;;34.10;72.30;;;;;;5025872;28;20308;-76
2022/06/30 14:52:20;;;;;;;12.68;10.70;;;34.20;71.70;;;;;;5022773;28;20213;-76
2022/06/30 14:55:26;;;;;;;11.75;9.77;;;34.20;72.20;;;;;;5011287;28;20229;-77
2022/06/30 14:58:18;;;;;;;11.93;10.55;;;34.20;71.50;;;;;;5019389;28;20232;-79